Time;durP1;ratioP1;P1;durP2;ratioP2;P2;SDS_P1;SDS_P2;PMS_P1;PMS_P2;Temp;Humidity;BMP_temperature;BMP_pressure;BME280_temperature;BME280_humidity;BME280_pressure;Samples;Min_cycle;Max_cycle;Signal;HPM_P1;HPM_P2
2024/01/30 00:00:21;;;;;;;76.82;36.80;;;2.40;74.00;;;;;;4978751;28;20023;-65
2024/01/30 00:02:47;;;;;;;71.30;37.38;;;2.40;73.30;;;;;;4978548;28;20023;-65
2024/01/30 00:05:13;;;;;;;71.10;34.42;;;2.30;72.50;;;;;;4978573;28;20118;-65
2024/01/30 00:07:39;;;;;;;78.57;37.95;;;2.20;72.80;;;;;;4978859;28;20049;-65
2024/01/30 00:10:06;;;;;;;73.32;36.97;;;2.10;73.30;;;;;;4978804;28;20436;-65
2024/01/30 00:12:31;;;;;;;65.00;33.45;;;2.10;73.30;;;;;;4978755;28;20026;-65
2024/01/30 00:14:57;;;;;;;81.35;37.88;;;2.00;73.40;;;;;;4978468;28;20042;-65
2024/01/30 00:17:25;;;;;;;80.85;39.05;;;2.00;73.70;;;;;;4978404;28;20077;-65
2024/01/30 00:19:50;;;;;;;82.80;38.03;;;2.00;73.70;;;;;;4978331;28;20408;-65
2024/01/30 00:22:17;;;;;;;81.63;38.83;;;2.00;73.80;;;;;;4978361;28;20022;-65
2024/01/30 00:24:42;;;;;;;83.50;40.45;;;2.00;74.00;;;;;;4978316;28;20038;-65
2024/01/30 00:27:09;;;;;;;76.65;38.78;;;1.90;74.00;;;;;;4978770;28;20022;-65
2024/01/30 00:29:34;;;;;;;85.72;41.53;;;1.90;73.80;;;;;;4978470;28;20453;-65
2024/01/30 00:32:00;;;;;;;73.40;37.05;;;1.90;74.30;;;;;;4978350;28;20440;-64
2024/01/30 00:34:26;;;;;;;83.47;37.70;;;1.90;74.50;;;;;;4978151;28;20445;-65
2024/01/30 00:36:52;;;;;;;84.53;39.65;;;1.90;74.30;;;;;;4978117;28;20098;-65
2024/01/30 00:39:19;;;;;;;87.80;39.17;;;1.90;74.20;;;;;;4978021;28;20038;-65
2024/01/30 00:41:45;;;;;;;79.78;37.53;;;2.00;74.10;;;;;;4978088;28;20031;-65
2024/01/30 00:44:11;;;;;;;73.68;35.65;;;2.00;73.90;;;;;;4976919;28;20065;-65
2024/01/30 00:46:37;;;;;;;71.35;35.33;;;2.00;74.10;;;;;;4977856;28;20054;-65
2024/01/30 00:49:03;;;;;;;75.68;35.85;;;2.00;74.20;;;;;;4977821;28;20027;-65
2024/01/30 00:51:29;;;;;;;79.32;40.13;;;2.00;74.20;;;;;;4977996;28;20351;-65
2024/01/30 00:53:55;;;;;;;75.72;37.97;;;2.00;74.60;;;;;;4977932;28;20061;-65
2024/01/30 00:56:21;;;;;;;72.25;38.38;;;2.00;74.30;;;;;;4977690;28;20437;-66
2024/01/30 00:58:47;;;;;;;81.85;37.88;;;2.00;74.10;;;;;;4977700;28;20119;-65
2024/01/30 01:01:14;;;;;;;75.82;37.78;;;2.00;74.10;;;;;;4978081;28;20026;-66
2024/01/30 01:03:43;;;;;;;76.18;37.13;;;2.00;73.90;;;;;;4977675;28;20039;-65
2024/01/30 01:06:09;;;;;;;77.60;35.42;;;2.00;73.80;;;;;;4977450;28;20107;-65
2024/01/30 01:08:35;;;;;;;76.95;35.50;;;1.90;74.00;;;;;;4977412;28;20076;-65
2024/01/30 01:11:03;;;;;;;80.07;38.15;;;2.00;73.90;;;;;;4977347;28;20034;-65
2024/01/30 01:13:29;;;;;;;79.38;38.00;;;2.00;73.90;;;;;;4977412;28;20037;-65
2024/01/30 01:15:55;;;;;;;75.93;37.22;;;1.90;73.60;;;;;;4976696;28;20030;-65
2024/01/30 01:18:21;;;;;;;77.85;37.20;;;1.90;74.00;;;;;;4977275;28;20036;-65
2024/01/30 01:20:47;;;;;;;69.75;35.97;;;1.90;74.00;;;;;;4977230;28;20107;-65
2024/01/30 01:23:13;;;;;;;77.97;36.88;;;1.90;73.70;;;;;;4977137;28;20098;-65
2024/01/30 01:25:38;;;;;;;75.30;38.10;;;1.90;73.90;;;;;;4977472;28;20026;-65
2024/01/30 01:28:05;;;;;;;83.72;37.70;;;1.90;74.00;;;;;;4977396;28;20433;-65
2024/01/30 01:30:30;;;;;;;74.65;36.20;;;1.90;74.00;;;;;;4977608;28;20098;-65
2024/01/30 01:32:59;;;;;;;80.85;38.97;;;1.90;73.70;;;;;;4976785;28;20133;-66
2024/01/30 01:35:26;;;;;;;80.05;39.85;;;1.80;74.00;;;;;;4977252;28;20042;-65
2024/01/30 01:37:56;;;;;;;81.40;40.13;;;1.90;74.30;;;;;;4977227;28;20341;-65
2024/01/30 01:40:26;;;;;;;71.95;36.67;;;1.90;74.40;;;;;;4976905;28;20058;-65
2024/01/30 01:42:53;;;;;;;73.50;36.65;;;1.90;74.20;;;;;;4976992;28;20041;-65
2024/01/30 01:45:20;;;;;;;72.22;33.28;;;1.90;74.50;;;;;;4976894;28;20023;-64
2024/01/30 01:47:50;;;;;;;77.10;36.92;;;1.80;74.00;;;;;;4977043;28;20078;-65
2024/01/30 01:50:18;;;;;;;77.75;37.63;;;1.90;73.80;;;;;;4976764;28;20440;-65
2024/01/30 01:52:47;;;;;;;74.82;35.20;;;1.80;73.90;;;;;;4976902;28;20026;-65
2024/01/30 01:55:14;;;;;;;79.10;38.20;;;1.90;74.10;;;;;;4976703;28;20029;-65
2024/01/30 01:57:41;;;;;;;74.20;35.58;;;1.80;74.00;;;;;;4976899;28;20109;-67
2024/01/30 02:00:10;;;;;;;79.38;38.00;;;1.90;73.90;;;;;;4976658;28;20355;-64
2024/01/30 02:02:37;;;;;;;83.13;38.92;;;1.90;73.90;;;;;;4975482;28;20058;-65
2024/01/30 02:05:03;;;;;;;78.78;41.58;;;1.90;74.00;;;;;;4976584;28;20019;-65
2024/01/30 02:07:29;;;;;;;78.22;36.20;;;1.90;74.30;;;;;;4976487;28;20031;-65
2024/01/30 02:09:56;;;;;;;76.07;36.58;;;1.90;74.20;;;;;;4976751;28;20033;-65
2024/01/30 02:12:21;;;;;;;66.15;33.92;;;1.90;74.20;;;;;;4976439;28;20069;-65
2024/01/30 02:14:48;;;;;;;70.22;36.78;;;1.90;74.30;;;;;;4976736;28;20067;-65
2024/01/30 02:17:16;;;;;;;62.20;31.90;;;1.90;74.20;;;;;;4976373;28;20027;-66
2024/01/30 02:19:42;;;;;;;64.32;31.27;;;1.90;74.20;;;;;;4976359;28;20026;-65
2024/01/30 02:22:09;;;;;;;66.57;34.38;;;1.80;74.30;;;;;;4976453;28;20043;-65
2024/01/30 02:24:35;;;;;;;57.92;30.25;;;1.80;74.40;;;;;;4976392;28;20110;-65
2024/01/30 02:27:01;;;;;;;59.92;30.90;;;1.80;74.50;;;;;;4977782;28;20126;-66
2024/01/30 02:29:27;;;;;;;70.70;32.88;;;1.80;74.50;;;;;;4980395;28;20082;-65
2024/01/30 02:31:52;;;;;;;59.10;29.60;;;1.80;74.30;;;;;;4980714;28;20034;-65
2024/01/30 02:34:19;;;;;;;60.28;30.75;;;1.70;74.60;;;;;;4980839;28;20053;-65
2024/01/30 02:36:45;;;;;;;65.28;32.88;;;1.70;74.70;;;;;;4980536;28;20030;-65
2024/01/30 02:39:11;;;;;;;70.55;34.10;;;1.70;75.10;;;;;;4980239;28;20049;-65
2024/01/30 02:41:37;;;;;;;66.78;34.67;;;1.70;75.10;;;;;;4980024;28;20023;-65
2024/01/30 02:44:04;;;;;;;66.68;33.38;;;1.70;75.30;;;;;;4980124;28;20038;-65
2024/01/30 02:46:30;;;;;;;72.53;35.85;;;1.60;75.20;;;;;;4980328;28;20035;-65
2024/01/30 02:48:56;;;;;;;64.85;32.20;;;1.60;75.30;;;;;;4980052;28;20125;-65
2024/01/30 02:51:22;;;;;;;72.57;35.97;;;1.70;75.10;;;;;;4979032;28;20528;-66
2024/01/30 02:53:47;;;;;;;59.55;31.80;;;1.60;75.40;;;;;;4979892;28;20094;-65
2024/01/30 02:56:14;;;;;;;61.53;32.05;;;1.60;75.00;;;;;;4980156;28;20054;-65
2024/01/30 02:58:40;;;;;;;62.45;32.22;;;1.60;75.00;;;;;;4980889;28;20071;-65
2024/01/30 03:01:07;;;;;;;66.35;34.13;;;1.60;74.80;;;;;;4980072;28;20536;-65
2024/01/30 03:03:35;;;;;;;64.15;31.83;;;1.60;75.00;;;;;;4979610;28;20063;-65
2024/01/30 03:06:01;;;;;;;60.83;32.33;;;1.60;74.90;;;;;;4979685;28;20031;-65
2024/01/30 03:08:27;;;;;;;62.22;30.70;;;1.50;75.00;;;;;;4979613;28;20026;-65
2024/01/30 03:10:53;;;;;;;65.57;32.55;;;1.50;75.10;;;;;;4980162;28;20200;-66
2024/01/30 03:13:19;;;;;;;64.93;32.78;;;1.50;75.20;;;;;;4979625;28;20054;-65
2024/01/30 03:15:45;;;;;;;66.70;31.98;;;1.50;75.20;;;;;;4978592;28;20035;-65
2024/01/30 03:18:11;;;;;;;66.25;33.22;;;1.50;75.00;;;;;;4979580;28;20082;-64
2024/01/30 03:20:37;;;;;;;66.00;34.08;;;1.50;75.00;;;;;;4979720;28;20345;-67
2024/01/30 03:23:03;;;;;;;74.63;35.30;;;1.50;75.10;;;;;;4979258;28;20081;-67
2024/01/30 03:25:29;;;;;;;67.53;33.92;;;1.50;75.10;;;;;;4979428;28;20023;-65
2024/01/30 03:27:55;;;;;;;66.70;32.13;;;1.50;75.20;;;;;;4979621;28;20040;-65
2024/01/30 03:30:21;;;;;;;65.68;32.35;;;1.50;75.00;;;;;;4979580;28;20483;-66
2024/01/30 03:32:47;;;;;;;67.40;33.97;;;1.50;75.20;;;;;;4979095;28;20065;-65
2024/01/30 03:35:13;;;;;;;68.63;33.67;;;1.50;75.10;;;;;;4979208;28;20069;-65
2024/01/30 03:37:39;;;;;;;69.47;34.00;;;1.50;75.10;;;;;;4979161;28;20098;-65
2024/01/30 03:40:05;;;;;;;60.95;32.72;;;1.50;74.80;;;;;;4978671;28;20356;-65
2024/01/30 03:42:31;;;;;;;68.38;33.33;;;1.50;75.00;;;;;;4979144;28;20043;-65
2024/01/30 03:44:57;;;;;;;70.25;34.05;;;1.40;75.00;;;;;;4979009;28;20105;-65
2024/01/30 03:47:23;;;;;;;70.30;35.95;;;1.40;75.00;;;;;;4978124;28;20019;-65
2024/01/30 03:49:49;;;;;;;69.85;34.38;;;1.50;75.00;;;;;;4978950;28;20038;-65
2024/01/30 03:52:15;;;;;;;67.07;33.00;;;1.50;74.80;;;;;;4979324;28;20157;-65
2024/01/30 03:54:41;;;;;;;76.78;35.13;;;1.50;75.10;;;;;;4979382;28;20080;-65
2024/01/30 03:57:07;;;;;;;68.13;36.30;;;1.50;75.50;;;;;;4978852;28;20030;-65
2024/01/30 03:59:33;;;;;;;65.70;34.65;;;1.50;75.00;;;;;;4978985;28;20027;-65
2024/01/30 04:01:59;;;;;;;72.22;35.75;;;1.40;74.60;;;;;;4978590;28;20447;-65
2024/01/30 04:04:25;;;;;;;68.45;33.50;;;1.40;74.50;;;;;;4978628;28;20074;-65
2024/01/30 04:06:51;;;;;;;65.25;33.38;;;1.40;74.80;;;;;;4979213;28;20035;-65
2024/01/30 04:09:17;;;;;;;75.97;36.58;;;1.40;74.80;;;;;;4978876;28;20035;-65
2024/01/30 04:11:43;;;;;;;67.35;33.58;;;1.40;74.90;;;;;;4978531;28;20444;-65
2024/01/30 04:14:10;;;;;;;77.47;38.58;;;1.40;75.10;;;;;;4978563;28;20031;-65
2024/01/30 04:16:36;;;;;;;78.35;41.03;;;1.40;74.90;;;;;;4978736;28;20026;-65
2024/01/30 04:19:02;;;;;;;65.85;33.33;;;1.40;74.50;;;;;;4977471;28;20377;-65
2024/01/30 04:21:28;;;;;;;69.68;33.75;;;1.40;74.30;;;;;;4978389;28;20019;-64
2024/01/30 04:23:54;;;;;;;68.18;33.90;;;1.40;74.50;;;;;;4978732;28;20114;-67
2024/01/30 04:26:19;;;;;;;80.20;37.95;;;1.40;74.70;;;;;;4978306;28;20015;-65
2024/01/30 04:28:46;;;;;;;73.90;36.08;;;1.30;74.70;;;;;;4978234;28;20371;-65
2024/01/30 04:31:12;;;;;;;66.78;32.15;;;1.40;74.90;;;;;;4978423;28;20023;-65
2024/01/30 04:33:38;;;;;;;60.53;31.73;;;1.30;75.00;;;;;;4977887;28;20453;-65
2024/01/30 04:36:08;;;;;;;71.85;34.88;;;1.30;75.00;;;;;;4978125;28;20081;-66
2024/01/30 04:38:34;;;;;;;72.95;34.42;;;1.40;75.10;;;;;;4978030;28;20141;-65
2024/01/30 04:41:00;;;;;;;63.97;32.35;;;1.40;75.10;;;;;;4978269;28;20109;-65
2024/01/30 04:43:27;;;;;;;64.65;32.05;;;1.40;75.20;;;;;;4978327;28;20031;-65
2024/01/30 04:45:53;;;;;;;70.63;32.67;;;1.40;74.90;;;;;;4977882;28;20027;-65
2024/01/30 04:48:19;;;;;;;69.05;31.63;;;1.40;74.90;;;;;;4978120;28;20022;-66
2024/01/30 04:50:45;;;;;;;65.55;32.58;;;1.40;74.90;;;;;;4977390;28;20073;-66
2024/01/30 04:53:10;;;;;;;65.55;30.88;;;1.40;75.00;;;;;;4977137;28;20034;-65
2024/01/30 04:55:36;;;;;;;68.10;31.63;;;1.40;75.10;;;;;;4978002;28;20027;-65
2024/01/30 04:58:02;;;;;;;69.80;31.42;;;1.40;75.00;;;;;;4977737;28;20052;-65
2024/01/30 05:00:29;;;;;;;67.68;31.52;;;1.40;75.00;;;;;;4978139;28;20110;-66
2024/01/30 05:02:56;;;;;;;74.10;36.90;;;1.40;74.90;;;;;;4977405;28;20109;-66
2024/01/30 05:05:22;;;;;;;67.70;33.40;;;1.40;74.80;;;;;;4977583;28;20026;-65
2024/01/30 05:07:48;;;;;;;63.70;31.48;;;1.40;74.30;;;;;;4977533;28;20330;-65
2024/01/30 05:10:14;;;;;;;64.82;33.40;;;1.40;74.50;;;;;;4977526;28;20070;-66
2024/01/30 05:12:40;;;;;;;71.53;34.33;;;1.40;74.60;;;;;;4977399;28;20065;-66
2024/01/30 05:15:06;;;;;;;78.22;34.85;;;1.30;74.70;;;;;;4977624;28;20042;-66
2024/01/30 05:17:33;;;;;;;59.33;28.33;;;1.30;74.40;;;;;;4977404;28;20342;-67
2024/01/30 05:19:59;;;;;;;62.40;31.77;;;1.30;74.50;;;;;;4977272;28;20026;-66
2024/01/30 05:22:25;;;;;;;68.00;33.05;;;1.30;74.60;;;;;;4977696;28;20042;-66
2024/01/30 05:24:51;;;;;;;59.88;31.48;;;1.30;74.70;;;;;;4977200;28;20076;-66
2024/01/30 05:27:17;;;;;;;66.03;32.15;;;1.30;74.60;;;;;;4977141;28;20455;-67
2024/01/30 05:29:43;;;;;;;64.75;30.50;;;1.30;74.60;;;;;;4977144;28;20063;-66
2024/01/30 05:32:09;;;;;;;58.05;30.30;;;1.30;74.70;;;;;;4976809;28;20027;-65
2024/01/30 05:34:35;;;;;;;53.92;27.77;;;1.30;74.90;;;;;;4977385;28;20441;-66
2024/01/30 05:37:01;;;;;;;63.30;32.20;;;1.40;74.80;;;;;;4977281;28;20054;-66
2024/01/30 05:39:27;;;;;;;67.40;34.90;;;1.30;74.60;;;;;;4977227;28;20081;-66
2024/01/30 05:41:53;;;;;;;63.08;33.10;;;1.30;74.10;;;;;;4977276;28;20063;-67
2024/01/30 05:44:19;;;;;;;63.15;32.35;;;1.20;74.00;;;;;;4976820;28;20022;-66
2024/01/30 05:46:45;;;;;;;64.20;29.27;;;1.20;74.30;;;;;;4977086;28;20034;-66
2024/01/30 05:49:11;;;;;;;57.22;27.27;;;1.20;74.40;;;;;;4976810;28;20445;-66
2024/01/30 05:51:37;;;;;;;62.53;32.03;;;1.20;74.40;;;;;;4977229;28;20019;-66
2024/01/30 05:54:04;;;;;;;61.28;32.58;;;1.20;74.80;;;;;;4977041;28;20027;-66
2024/01/30 05:56:30;;;;;;;54.10;27.33;;;1.20;74.70;;;;;;4976638;28;20078;-66
2024/01/30 05:58:56;;;;;;;56.33;28.73;;;1.20;75.10;;;;;;4976921;28;20062;-66
2024/01/30 06:01:22;;;;;;;67.43;30.88;;;1.20;74.90;;;;;;4976456;28;20425;-67
2024/01/30 06:03:48;;;;;;;64.90;33.47;;;1.20;74.80;;;;;;4976393;28;20073;-66
2024/01/30 06:06:13;;;;;;;67.72;30.88;;;1.20;75.10;;;;;;4977128;28;20042;-66
2024/01/30 06:08:39;;;;;;;67.93;34.30;;;1.20;75.30;;;;;;4976550;28;20033;-66
2024/01/30 06:11:05;;;;;;;66.85;33.20;;;1.20;75.60;;;;;;4976515;28;20400;-66
2024/01/30 06:13:32;;;;;;;56.47;29.23;;;1.20;75.20;;;;;;4976465;28;20027;-66
2024/01/30 06:15:58;;;;;;;63.53;32.05;;;1.20;74.70;;;;;;4976461;28;20412;-66
2024/01/30 06:18:26;;;;;;;65.38;33.90;;;1.20;75.00;;;;;;4976760;28;20050;-67
2024/01/30 06:20:52;;;;;;;54.90;27.58;;;1.20;75.00;;;;;;4976334;28;20031;-67
2024/01/30 06:23:18;;;;;;;72.38;34.75;;;1.10;74.70;;;;;;4976274;28;20027;-64
2024/01/30 06:25:44;;;;;;;66.00;34.78;;;1.20;75.00;;;;;;4976397;28;20368;-64
2024/01/30 06:28:10;;;;;;;79.05;34.35;;;1.20;74.20;;;;;;4976540;28;20023;-65
2024/01/30 06:30:36;;;;;;;77.25;35.88;;;1.10;73.80;;;;;;4976299;28;20055;-67
2024/01/30 06:33:02;;;;;;;81.35;34.63;;;1.10;73.70;;;;;;4976022;28;20046;-67
2024/01/30 06:35:28;;;;;;;73.53;35.70;;;1.10;73.80;;;;;;4976275;28;20330;-67
2024/01/30 06:37:54;;;;;;;65.25;35.38;;;1.10;73.70;;;;;;4976300;28;20027;-68
2024/01/30 06:40:20;;;;;;;73.55;35.05;;;1.10;73.70;;;;;;4976786;28;20106;-66
2024/01/30 06:42:46;;;;;;;69.50;36.60;;;1.10;73.60;;;;;;4976372;28;20496;-66
2024/01/30 06:45:12;;;;;;;67.65;33.85;;;1.10;73.50;;;;;;4976495;28;20019;-66
2024/01/30 06:47:38;;;;;;;66.55;34.60;;;1.00;73.60;;;;;;4976675;28;20034;-69
2024/01/30 06:50:05;;;;;;;72.07;37.60;;;1.10;73.60;;;;;;4976850;28;20027;-67
2024/01/30 06:52:31;;;;;;;65.25;34.05;;;1.00;73.70;;;;;;4976119;28;20027;-67
2024/01/30 06:54:57;;;;;;;64.03;34.20;;;1.10;74.70;;;;;;4976126;28;20031;-67
2024/01/30 06:57:23;;;;;;;75.50;38.38;;;1.20;75.80;;;;;;4976675;28;20027;-67
2024/01/30 06:59:48;;;;;;;69.97;34.40;;;1.20;76.30;;;;;;4976087;28;20030;-66
2024/01/30 07:02:14;;;;;;;71.55;35.25;;;1.20;75.90;;;;;;4975987;28;20396;-67
2024/01/30 07:04:41;;;;;;;69.80;36.03;;;1.30;75.70;;;;;;4976582;28;20031;-67
2024/01/30 07:07:12;;;;;;;74.10;38.70;;;1.30;75.80;;;;;;4975022;28;20109;-66
2024/01/30 07:09:39;;;;;;;73.53;36.20;;;1.30;75.80;;;;;;4975964;28;20035;-67
2024/01/30 07:12:06;;;;;;;69.45;36.80;;;1.40;75.80;;;;;;4976169;28;20065;-66
2024/01/30 07:14:31;;;;;;;69.32;35.60;;;1.40;76.30;;;;;;4977769;28;20038;-66
2024/01/30 07:16:57;;;;;;;71.43;36.78;;;1.40;75.90;;;;;;4979584;28;20034;-66
2024/01/30 07:19:23;;;;;;;75.85;36.78;;;1.50;76.10;;;;;;4979546;28;20081;-67
2024/01/30 07:21:49;;;;;;;68.65;36.65;;;1.60;76.20;;;;;;4979344;28;20053;-66
2024/01/30 07:24:15;;;;;;;64.18;32.55;;;1.60;76.10;;;;;;4979415;28;20031;-66
2024/01/30 07:26:41;;;;;;;69.47;35.78;;;1.60;75.90;;;;;;4979671;28;20023;-67
2024/01/30 07:29:07;;;;;;;72.40;36.10;;;1.70;76.00;;;;;;4979592;28;20046;-67
2024/01/30 07:31:33;;;;;;;73.68;36.45;;;1.80;76.30;;;;;;4979811;28;20019;-67
2024/01/30 07:33:59;;;;;;;70.22;34.05;;;1.90;76.30;;;;;;4978979;28;20067;-67
2024/01/30 07:36:26;;;;;;;74.18;36.25;;;2.00;76.50;;;;;;4979256;28;20031;-67
2024/01/30 07:38:54;;;;;;;66.63;35.80;;;2.30;76.40;;;;;;4979113;28;20035;-66
2024/01/30 07:41:20;;;;;;;68.38;36.55;;;2.40;76.40;;;;;;4979056;28;20042;-67
2024/01/30 07:43:46;;;;;;;65.90;35.72;;;2.60;76.30;;;;;;4978006;28;20094;-67
2024/01/30 07:46:12;;;;;;;64.85;34.72;;;2.70;76.40;;;;;;4979297;28;20437;-66
2024/01/30 07:48:38;;;;;;;63.10;32.53;;;2.90;76.50;;;;;;4979010;28;20026;-67
2024/01/30 07:51:04;;;;;;;62.75;32.47;;;2.90;76.40;;;;;;4979477;28;20077;-67
2024/01/30 07:53:30;;;;;;;53.72;29.67;;;3.10;76.60;;;;;;4978815;28;20122;-67
2024/01/30 07:55:56;;;;;;;57.30;30.15;;;3.20;76.60;;;;;;4978876;28;20094;-67
2024/01/30 07:58:23;;;;;;;62.83;33.28;;;3.40;76.20;;;;;;4978857;28;20113;-67
2024/01/30 08:00:51;;;;;;;56.67;30.58;;;3.50;76.10;;;;;;4978866;28;20090;-67
2024/01/30 08:03:18;;;;;;;63.72;32.42;;;3.70;76.40;;;;;;4979839;28;20113;-65
2024/01/30 08:05:44;;;;;;;66.70;35.30;;;3.80;76.20;;;;;;4979759;28;20023;-67
2024/01/30 08:08:10;;;;;;;62.55;31.67;;;4.00;76.80;;;;;;4980054;28;20023;-67
2024/01/30 08:10:36;;;;;;;52.15;30.13;;;4.20;76.10;;;;;;4980113;28;20081;-67
2024/01/30 08:13:02;;;;;;;57.22;30.20;;;4.30;76.20;;;;;;4979748;28;20056;-67
2024/01/30 08:15:28;;;;;;;60.40;31.40;;;4.40;75.90;;;;;;4980249;28;20031;-68
2024/01/30 08:17:57;;;;;;;60.17;33.65;;;4.60;76.00;;;;;;4978520;28;20030;-67
2024/01/30 08:20:24;;;;;;;62.13;32.58;;;4.60;75.70;;;;;;4978474;28;20113;-67
2024/01/30 08:22:51;;;;;;;75.22;39.60;;;4.70;75.20;;;;;;4978570;28;20113;-67
2024/01/30 08:25:17;;;;;;;70.65;35.40;;;4.80;75.50;;;;;;4978151;28;20568;-67
2024/01/30 08:27:42;;;;;;;62.63;32.75;;;4.80;75.20;;;;;;4978897;28;20102;-68
2024/01/30 08:30:09;;;;;;;66.70;35.05;;;5.00;75.60;;;;;;4978333;28;20035;-68
2024/01/30 08:32:35;;;;;;;70.68;37.42;;;5.10;75.60;;;;;;4978305;28;20118;-67
2024/01/30 08:35:04;;;;;;;58.78;31.50;;;5.20;74.60;;;;;;4978724;28;20027;-68
2024/01/30 08:37:30;;;;;;;57.38;31.50;;;5.30;74.20;;;;;;4978668;28;20023;-68
2024/01/30 08:39:56;;;;;;;57.72;31.17;;;5.40;74.40;;;;;;4978155;28;20310;-68
2024/01/30 08:42:22;;;;;;;70.07;36.70;;;5.50;73.80;;;;;;4978301;28;20342;-68
2024/01/30 08:44:51;;;;;;;63.45;32.80;;;5.60;74.10;;;;;;4978035;28;20046;-66
2024/01/30 08:47:18;;;;;;;54.22;31.30;;;5.60;73.80;;;;;;4977879;28;20404;-66
2024/01/30 08:49:44;;;;;;;54.00;28.58;;;5.70;73.30;;;;;;4977897;28;20018;-66
2024/01/30 08:52:13;;;;;;;51.85;29.40;;;5.80;73.80;;;;;;4978363;28;20089;-68
2024/01/30 08:54:39;;;;;;;51.95;28.38;;;5.90;73.00;;;;;;4977858;28;20491;-66
2024/01/30 08:57:05;;;;;;;51.20;27.77;;;5.90;73.20;;;;;;4977854;28;20453;-66
2024/01/30 08:59:31;;;;;;;54.15;29.08;;;5.90;73.40;;;;;;4977773;28;20027;-68
2024/01/30 09:01:59;;;;;;;46.00;26.40;;;6.00;73.00;;;;;;4977576;28;20042;-68
2024/01/30 09:04:25;;;;;;;51.92;28.90;;;6.00;72.10;;;;;;4977918;28;20031;-68
2024/01/30 09:06:51;;;;;;;47.90;25.52;;;6.10;72.70;;;;;;4977639;28;20023;-67
2024/01/30 09:09:17;;;;;;;45.67;25.95;;;6.20;72.60;;;;;;4978094;28;20034;-68
2024/01/30 09:11:44;;;;;;;45.88;24.48;;;6.30;72.60;;;;;;4977695;28;20023;-67
2024/01/30 09:14:10;;;;;;;41.78;24.08;;;6.40;72.60;;;;;;4977711;28;20015;-68
2024/01/30 09:16:36;;;;;;;41.83;24.48;;;6.50;71.60;;;;;;4977943;28;20557;-68
2024/01/30 09:19:02;;;;;;;46.25;23.58;;;6.60;71.70;;;;;;4977416;28;20385;-68
2024/01/30 09:21:28;;;;;;;40.35;22.08;;;6.60;72.10;;;;;;4977367;28;20109;-68
2024/01/30 09:24:01;;;;;;;38.40;21.63;;;6.80;72.30;;;;;;4977400;28;20070;-68
2024/01/30 09:26:27;;;;;;;42.95;22.65;;;6.90;72.00;;;;;;4977569;28;20433;-68
2024/01/30 09:28:53;;;;;;;39.08;21.90;;;6.90;72.40;;;;;;4977698;28;20038;-66
2024/01/30 09:31:19;;;;;;;37.55;19.88;;;7.10;72.10;;;;;;4977174;28;20027;-67
2024/01/30 09:33:47;;;;;;;35.83;20.58;;;7.20;71.80;;;;;;4976943;28;20046;-68
2024/01/30 09:36:15;;;;;;;37.20;21.67;;;7.30;71.50;;;;;;4977051;28;20069;-68
2024/01/30 09:38:41;;;;;;;38.63;20.60;;;7.40;71.40;;;;;;4977032;28;20039;-68
2024/01/30 09:41:10;;;;;;;35.53;21.75;;;7.50;71.40;;;;;;4977051;28;20027;-67
2024/01/30 09:43:39;;;;;;;34.95;20.52;;;7.60;70.10;;;;;;4976848;28;20050;-67
2024/01/30 09:46:07;;;;;;;33.83;20.38;;;7.70;69.00;;;;;;4976882;28;20504;-67
2024/01/30 09:48:34;;;;;;;35.63;20.27;;;7.70;69.40;;;;;;4977415;28;20041;-67
2024/01/30 09:51:02;;;;;;;34.92;18.83;;;7.80;68.80;;;;;;4976821;28;20502;-68
2024/01/30 09:53:27;;;;;;;32.03;19.73;;;7.90;68.90;;;;;;4976957;28;20023;-67
2024/01/30 09:55:53;;;;;;;33.92;19.30;;;7.90;68.50;;;;;;4977269;28;20046;-67
2024/01/30 09:58:19;;;;;;;31.80;19.23;;;7.90;68.50;;;;;;4976777;28;20037;-68
2024/01/30 10:00:45;;;;;;;34.17;20.17;;;8.00;68.60;;;;;;4976929;28;20027;-68
2024/01/30 10:03:14;;;;;;;34.35;20.02;;;8.20;68.20;;;;;;4976457;28;20050;-67
2024/01/30 10:05:41;;;;;;;34.65;20.33;;;8.20;67.90;;;;;;4977150;28;20023;-67
2024/01/30 10:08:10;;;;;;;35.80;19.35;;;8.30;68.30;;;;;;4976605;28;20047;-68
2024/01/30 10:10:36;;;;;;;32.88;20.48;;;8.40;68.50;;;;;;4976792;28;20023;-67
2024/01/30 10:13:02;;;;;;;34.00;20.35;;;8.50;67.80;;;;;;4976380;28;20113;-68
2024/01/30 10:15:29;;;;;;;38.78;21.88;;;8.60;67.50;;;;;;4975505;28;20031;-66
2024/01/30 10:17:55;;;;;;;38.25;22.42;;;8.70;68.00;;;;;;4976481;28;20496;-66
2024/01/30 10:20:22;;;;;;;39.75;23.05;;;8.80;68.00;;;;;;4976678;28;20026;-66
2024/01/30 10:22:49;;;;;;;33.63;21.73;;;8.80;67.70;;;;;;4976467;28;20072;-66
2024/01/30 10:25:16;;;;;;;36.85;22.98;;;8.90;66.70;;;;;;4976315;28;20447;-66
2024/01/30 10:27:42;;;;;;;36.85;22.38;;;8.90;66.30;;;;;;4976238;28;20061;-66
2024/01/30 10:30:09;;;;;;;33.03;21.25;;;9.00;67.10;;;;;;4976605;28;20019;-67
2024/01/30 10:32:35;;;;;;;35.95;20.60;;;9.10;65.90;;;;;;4975944;28;20171;-66
2024/01/30 10:35:01;;;;;;;34.53;20.13;;;9.20;66.40;;;;;;4976196;28;20082;-66
2024/01/30 10:37:31;;;;;;;32.20;18.50;;;9.20;65.90;;;;;;4976751;28;20062;-68
2024/01/30 10:40:03;;;;;;;33.53;18.75;;;9.40;66.20;;;;;;4976068;28;20042;-66
2024/01/30 10:42:32;;;;;;;33.03;20.13;;;9.40;65.80;;;;;;4976846;28;20047;-66
2024/01/30 10:45:13;;;;;;;34.10;19.65;;;9.50;64.30;;;;;;4976174;28;20436;-66
2024/01/30 10:47:59;;;;;;;31.50;19.45;;;9.50;64.50;;;;;;4976424;28;20019;-66
2024/01/30 10:50:26;;;;;;;35.78;20.75;;;9.70;63.50;;;;;;4979575;28;20106;-66
2024/01/30 10:52:54;;;;;;;30.95;18.88;;;9.70;63.90;;;;;;4980216;28;20026;-66
2024/01/30 10:55:23;;;;;;;29.75;17.25;;;9.70;64.00;;;;;;4980470;28;20038;-66
2024/01/30 10:57:50;;;;;;;31.90;15.73;;;9.80;64.40;;;;;;4979003;28;20037;-66
2024/01/30 11:00:19;;;;;;;27.05;16.67;;;9.90;61.20;;;;;;4979865;28;20110;-66
2024/01/30 11:02:46;;;;;;;28.13;17.13;;;9.90;61.50;;;;;;4980216;28;20022;-66
2024/01/30 11:05:15;;;;;;;28.65;16.00;;;9.90;62.00;;;;;;4980066;28;20348;-66
2024/01/30 11:07:41;;;;;;;29.85;15.43;;;9.90;61.50;;;;;;4979948;28;20041;-67
2024/01/30 11:10:09;;;;;;;28.92;16.58;;;10.00;62.10;;;;;;4979686;28;20030;-66
2024/01/30 11:12:40;;;;;;;33.65;18.95;;;10.10;61.00;;;;;;4979742;28;20026;-66
2024/01/30 11:15:08;;;;;;;28.88;15.00;;;10.20;62.00;;;;;;4979529;28;20035;-66
2024/01/30 11:17:51;;;;;;;32.40;15.63;;;10.20;61.90;;;;;;4979818;28;20022;-67
2024/01/30 11:20:27;;;;;;;32.40;17.30;;;10.30;61.70;;;;;;4979502;28;20400;-67
2024/01/30 11:22:55;;;;;;;30.50;18.38;;;10.40;62.10;;;;;;4979608;28;20503;-67
2024/01/30 11:25:22;;;;;;;32.50;19.00;;;10.50;61.10;;;;;;4979462;28;20026;-67
2024/01/30 11:27:55;;;;;;;34.20;19.35;;;10.60;61.60;;;;;;4978425;28;20058;-67
2024/01/30 11:30:29;;;;;;;37.13;20.30;;;10.60;61.60;;;;;;4979338;28;20027;-67
2024/01/30 11:33:08;;;;;;;31.08;16.23;;;10.70;61.00;;;;;;4979058;28;20282;-66
2024/01/30 11:35:44;;;;;;;28.23;15.43;;;10.80;60.90;;;;;;4979552;28;20037;-67
2024/01/30 11:38:13;;;;;;;29.75;18.25;;;10.90;60.00;;;;;;4979783;28;20027;-67
2024/01/30 11:40:40;;;;;;;30.67;16.17;;;10.90;60.30;;;;;;4979438;28;20023;-67
2024/01/30 11:43:08;;;;;;;30.77;16.25;;;11.00;59.90;;;;;;4979125;28;20046;-67
2024/01/30 11:45:35;;;;;;;28.52;16.67;;;11.10;59.50;;;;;;4979612;28;20437;-67
2024/01/30 11:48:03;;;;;;;33.58;17.70;;;11.10;59.90;;;;;;4979065;28;20038;-67
2024/01/30 11:50:39;;;;;;;32.40;17.15;;;11.20;59.40;;;;;;4979005;28;20022;-67
2024/01/30 11:53:05;;;;;;;32.85;17.25;;;11.30;60.00;;;;;;4978917;28;20034;-67
2024/01/30 11:55:33;;;;;;;31.08;16.85;;;11.30;57.60;;;;;;4977956;28;20086;-67
2024/01/30 11:57:59;;;;;;;33.22;16.42;;;11.40;57.50;;;;;;4977933;28;20034;-67
2024/01/30 12:00:25;;;;;;;30.58;16.15;;;11.40;58.00;;;;;;4978332;28;20098;-67
2024/01/30 12:02:55;;;;;;;29.27;16.75;;;11.40;58.70;;;;;;4978619;28;20038;-68
2024/01/30 12:05:23;;;;;;;30.65;17.25;;;11.50;58.40;;;;;;4978714;28;20027;-67
2024/01/30 12:07:49;;;;;;;35.78;19.20;;;11.60;58.90;;;;;;4979205;28;20027;-67
2024/01/30 12:10:16;;;;;;;30.90;17.77;;;11.70;57.80;;;;;;4978645;28;20035;-67
2024/01/30 12:12:44;;;;;;;32.83;19.23;;;11.70;58.80;;;;;;4978512;28;20080;-67
2024/01/30 12:15:10;;;;;;;32.17;16.77;;;11.80;58.60;;;;;;4978492;28;20019;-67
2024/01/30 12:17:37;;;;;;;34.00;19.40;;;11.90;58.50;;;;;;4979047;28;20042;-67
2024/01/30 12:20:06;;;;;;;31.75;19.45;;;11.90;56.20;;;;;;4978747;28;20173;-67
2024/01/30 12:22:41;;;;;;;34.47;18.75;;;11.90;57.70;;;;;;4978263;28;20027;-67
2024/01/30 12:25:11;;;;;;;33.90;19.38;;;11.90;57.90;;;;;;4978664;28;20015;-66
2024/01/30 12:27:52;;;;;;;30.80;18.90;;;11.90;57.30;;;;;;4978348;28;20022;-67
2024/01/30 12:30:20;;;;;;;34.30;19.05;;;11.90;58.00;;;;;;4978583;28;20038;-67
2024/01/30 12:32:49;;;;;;;34.90;19.02;;;11.90;56.90;;;;;;4977929;28;20101;-67